Portada
METAR-TAF:

METAR-TAF

Aeroports :

Bastia, França

latitud: 42-33N, longitud: 009-29E, altitud: 8 m

Observació

L'informe es va fer fa 42 minuts, a les 15:30 UTC
Vent 4 kt del Nord, variant entre Nord-Oest i Est/Nord-Est
Temperatura 24°C
Humitat 31%
Pressió 1027 hPa
Visibilitat 10 km o més
sense núvols per sota de 1500 mi sense presència de cumulonimbus.

METAR: LFKB 271530Z AUTO 01004KT 310V060 CAVOK 24/06 Q1027 NOSIG

Hora: 18:12 (16:12 UTC)

Pronòstic

L'informe es va fer fa 2 hores i 12 minuts, a les 14:00 UTC
Pronòstic vàlid del 27 a les 15 UTC al 28 a les 15 UTC
Vent 3 kt amb direcció variable
Visibilitat 10 km o més
sense núvols per sota de 1500 mi sense presència de cumulonimbus.
Evolucionant progressivament
l' 27 a les 17 UTC al 27 a les 20 UTC
Vent 5 kt del Oest/Sud-Oest
Evolucionant progressivament
l' 28 a les 10 UTC al 28 a les 12 UTC
Vent 10 kt del Est/Sud-Est

TAF: LFKB 271400Z 2715/2815 VRB03KT CAVOK TX24/2812Z TN14/2803Z BECMG 2717/2720 24005KT BECMG 2810/2812 12010KT

Observacions i pronòstics meteorològics de més de 4000 aeroports (METAR i TAF).

Les estacions disponibles són els punts grocs i vermells al mapa.

Posi el ratolí al punt desitjat per veure el nom de l'estació.

Feu clic per veure les observacions i els pronòstics meteorològics.

Per canviar el mapa: feu clic els botons verds amb una creu de color negre per apropar; al botó verd amb un guió per allunyar la imatge; o en les fletxes verdes per a mapes adjacents.


METAR-TAF: